Aviation Digital Data Service (ADDS)

Output produced by METARs form (0340 UTC 30 May 2017)
found at http://www.aviationweather.gov/adds/metars/
 
KUNV 300335Z AUTO 21004KT 10SM CLR 18/11 A3000 RMK AO2 T01750112
KUNV 300315Z AUTO 22003KT 10SM CLR 17/12 A3000 RMK AO2 T01710117
KUNV 300255Z AUTO 00000KT 10SM CLR 19/11 A2999 RMK AO2 T01870114
KUNV 300235Z AUTO 00000KT 10SM CLR 18/11 A2999 RMK AO2 T01800114
KUNV 300215Z AUTO 00000KT 10SM CLR 18/11 A2999 RMK AO2 T01820113
KUNV 300053Z 00000KT 10SM SKC 19/10 A2997
KUNV 292353Z 00000KT 10SM SKC 22/11 A2995
KUNV 292253Z 28010KT 10SM FEW070 24/09 A2995
KUNV 292153Z 29009G16KT 10SM SCT070 25/10 A2995
KUNV 292053Z 27010KT 10SM SCT070 25/12 A2994
KUNV 291953Z 25013KT 10SM SCT065 SCT075 24/12 A2993
KUNV 291853Z 25006G16KT 10SM SCT070 24/12 A2992
KUNV 291753Z 26011KT 10SM SCT050 BKN075 24/14 A2992
KUNV 291653Z 26007KT 10SM SCT043 SCT050 23/14 A2991
KUNV 291553Z 24009KT 10SM SCT049 SCT055 22/15 A2990
KUNV 291453Z 29011KT 10SM BKN020 21/15 A2987
KUNV 291353Z 27008KT 10SM BKN020 19/16 A2986
KUNV 291253Z 21004KT 10SM BKN008 BKN013 BKN023 18/17 A2986
KUNV 291153Z 24006KT 5SM BR SCT001 SCT006 BKN043 16/16 A2983
KUNV 291053Z 00000KT 5SM -RA SCT001 OVC006 15/15 A2980
KUNV 291025Z 00000KT 1/4SM -RA OVC006 15/15 A2980
KUNV 291017Z 00000KT 1/2SM -RA OVC008 15/15 A2980
KUNV 290953Z 00000KT 2 1/2SM +RA BKN010 OVC015 15/15 A2981 RMK LTG DSNT SW
KUNV 290935Z AUTO 00000KT 5SM +RA OVC011 16/15 A2981 RMK AO2 P0004 T01550153
KUNV 290915Z AUTO 28005KT 10SM OVC013 16/15 A2981 RMK AO2 T01560152
KUNV 290855Z AUTO 00000KT 10SM -RA BKN015 OVC020 16/15 A2978 RMK AO2 LTG DSNT SW T01550151
KUNV 290835Z AUTO 00000KT 7SM -RA SCT010 OVC019 16/15 A2979 RMK AO2 P0003 T01550151
KUNV 290815Z AUTO 00000KT 10SM RA BKN013 BKN023 OVC100 16/15 A2979 RMK AO2 LTG DSNT SW P0001 T01550152
KUNV 290755Z AUTO 08004KT 10SM -VCTSRA SCT010 BKN025 OVC100 16/15 A2978 RMK AO2 LTG DSNT SW T01550151
KUNV 290735Z AUTO 09005KT 7SM -RA BKN012 OVC017 16/15 A2979 RMK AO2 P0023 T01560152
KUNV 290715Z AUTO 00000KT 2SM +VCTSRA OVC012 16/15 A2980 RMK AO2 P0014 T01580152
KUNV 290655Z AUTO 08004KT 10SM RA OVC012 16/15 A2979 RMK AO2 LTG DSNT SW THRU N T01570152
KUNV 290635Z AUTO 09004KT 10SM RA OVC010 16/15 A2979 RMK AO2 LTG DSNT SW AND W P0005 T01580153
KUNV 290615Z AUTO 07004KT 7SM VCTSRA BKN010 OVC016 16/16 A2979 RMK AO2 LTG DSNT SW AND W P0002 T01600155
KUNV 290555Z AUTO 00000KT 4SM -RA SCT007 BKN011 OVC031 16/16 A2980 RMK AO2 60003 T01600155 10175 20160
KUNV 290535Z AUTO 11006KT 10SM -RA SCT009 BKN030 OVC039 16/16 A2979 RMK AO2 LTG DSNT SW P0027 T01600156
KUNV 290515Z AUTO 00000KT 5SM TSRA BKN007 OVC011 16/16 A2981 RMK AO2 LTG DSNT SW AND W P0015 T01610160
KUNV 290455Z AUTO 02003KT 4SM +RA BKN009 BKN032 OVC070 16/16 A2981 RMK AO2 LTG DSNT W AND NW P0002 T01630161
KUNV 290435Z AUTO 00000KT 4SM RA SCT035 BKN055 OVC080 16/16 A2981 RMK AO2 LTG DSNT W AND NW P0006 T01610160
KUNV 290415Z AUTO 00000KT 2 1/2SM VCTSRA SCT001 BKN022 OVC060 16/16 A2983 RMK AO2 LTG DSNT W P0003 T01630162
KUNV 290355Z AUTO 00000KT 3/4SM -RA BKN001 OVC022 16/16 A2984 RMK AO2 LTG DSNT SW AND W T01630162 401950122
KUNV 290335Z AUTO 14003KT 2 1/2SM RA SCT013 BKN028 OVC034 17/16 A2983 RMK AO2 LTG DSNT SW P0016 T01650162
KUNV 290315Z AUTO 00000KT 2 1/2SM VCTSRA OVC012 17/16 A2985 RMK AO2 LTG DSNT W P0010 T01660163
KUNV 290255Z AUTO 28003KT 2 1/2SM -RA BKN010 OVC019 17/16 A2986 RMK AO2 LTG DSNT W T01660163
KUNV 290235Z AUTO 00000KT 5SM RA BKN016 BKN021 OVC026 17/16 A2985 RMK AO2 LTG DSNT SW AND W P0006 T01660162
KUNV 290215Z AUTO 08003KT 4SM RA OVC016 17/16 A2985 RMK AO2 LTG DSNT W P0003 T01670162
KUNV 290053Z 00000KT 8SM OVC016 17/16 A2984 RMK LTG DSNT W
KUNV 282353Z 00000KT 8SM BKN015 OVC020 17/16 A2984 RMK LTG DSNT N
KUNV 282253Z 00000KT 5SM -DZ BKN016 OVC018 18/16 A2984 RMK LTG DSNT SW
KUNV 282220Z 00000KT 3SM RA BKN016 OVC020 18/16 A2984 RMK LTG DSNT N
KUNV 282153Z 00000KT 10SM BKN016 OVC021 18/15 A2985 RMK LTG DSNT SW
KUNV 282053Z 00000KT 10SM OVC016 18/15 A2985 RMK LTG DSNT SW
KUNV 281953Z 00000KT 10SM OVC018 18/15 A2985 RMK LTG DSNT SW
KUNV 281853Z COR 18005KT 10SM OVC020 18/15 A2986
KUNV 281753Z 18009KT 7SM -RA OVC016 18/15 A2989
KUNV 281653Z 17009KT 7SM OVC016 18/15 A2990
KUNV 281553Z 18009KT 7SM OVC016 18/15 A2990